Time,TemperatureF,DewpointF,PressureIn,WindDirection,WindDirectionDegrees,WindSpeedMPH,WindSpeedGustMPH,Humidity,HourlyPrecipIn,Conditions,Clouds,dailyrainin,SoftwareType,DateUTC
2013-05-09 00:00:00,49.0,44.0,29.48,North,-999,-999.0,-999.0,83,-99.99,,,-99.99,,2013-05-08 23:00:00,
2013-05-09 00:41:00,49.0,44.0,29.48,North,-999,-999.0,-999.0,83,-99.99,,,-99.99,,2013-05-08 23:41:00,
2013-05-09 00:52:00,49.0,44.0,29.48,North,-999,-999.0,-999.0,83,-99.99,,,-99.99,,2013-05-08 23:52:00,
2013-05-09 01:00:00,48.0,44.0,29.48,North,-999,-999.0,-999.0,86,-99.99,,,-99.99,,2013-05-09 00:00:00,
2013-05-09 01:42:00,48.0,44.0,29.48,North,-999,-999.0,-999.0,86,-99.99,,,-99.99,,2013-05-09 00:42:00,
2013-05-09 01:51:00,48.0,44.0,29.48,North,-999,-999.0,-999.0,86,-99.99,,,-99.99,,2013-05-09 00:51:00,
2013-05-09 02:00:00,48.0,42.0,29.49,North,-999,-999.0,-999.0,79,-99.99,,,-99.99,,2013-05-09 01:00:00,
2013-05-09 02:42:00,48.0,42.0,29.49,North,-999,-999.0,-999.0,79,-99.99,,,-99.99,,2013-05-09 01:42:00,
2013-05-09 02:52:00,48.0,42.0,29.49,North,-999,-999.0,-999.0,79,-99.99,,,-99.99,,2013-05-09 01:52:00,
2013-05-09 03:00:00,46.0,40.0,29.48,North,-999,-999.0,-999.0,79,-99.99,,,-99.99,,2013-05-09 02:00:00,
2013-05-09 04:00:00,46.0,40.0,29.47,North,-999,-999.0,-999.0,78,-99.99,,,-99.99,,2013-05-09 03:00:00,
2013-05-09 04:43:00,46.0,40.0,29.47,North,-999,-999.0,-999.0,78,-99.99,,,-99.99,,2013-05-09 03:43:00,
2013-05-09 04:52:00,46.0,40.0,29.47,North,-999,-999.0,-999.0,78,-99.99,,,-99.99,,2013-05-09 03:52:00,
2013-05-09 05:00:00,46.0,40.0,29.45,North,-999,-999.0,-999.0,78,-99.99,,,-99.99,,2013-05-09 04:00:00,
2013-05-09 05:42:00,46.0,40.0,29.45,North,-999,-999.0,-999.0,78,-99.99,,,-99.99,,2013-05-09 04:42:00,
2013-05-09 05:52:00,46.0,40.0,29.45,North,-999,-999.0,-999.0,78,-99.99,,,-99.99,,2013-05-09 04:52:00,
2013-05-09 06:00:00,46.0,40.0,29.43,North,-999,-999.0,-999.0,78,-99.99,,,-99.99,,2013-05-09 05:00:00,
2013-05-09 06:42:00,46.0,40.0,29.43,North,-999,-999.0,-999.0,78,-99.99,,,-99.99,,2013-05-09 05:42:00,
2013-05-09 06:51:00,46.0,40.0,29.43,North,-999,-999.0,-999.0,78,-99.99,,,-99.99,,2013-05-09 05:51:00,
2013-05-09 07:00:00,47.0,38.0,29.44,North,-999,-999.0,-999.0,73,-99.99,,,-99.99,,2013-05-09 06:00:00,
2013-05-09 07:41:00,47.0,38.0,29.44,North,-999,-999.0,-999.0,73,-99.99,,,-99.99,,2013-05-09 06:41:00,
2013-05-09 07:52:00,47.0,38.0,29.44,North,-999,-999.0,-999.0,73,-99.99,,,-99.99,,2013-05-09 06:52:00,
2013-05-09 08:00:00,47.0,39.0,29.43,North,-999,-999.0,-999.0,72,-99.99,,,-99.99,,2013-05-09 07:00:00,
2013-05-09 08:42:00,47.0,39.0,29.43,North,-999,-999.0,-999.0,72,-99.99,,,-99.99,,2013-05-09 07:42:00,
2013-05-09 08:52:00,47.0,39.0,29.43,North,-999,-999.0,-999.0,72,-99.99,,,-99.99,,2013-05-09 07:52:00,
2013-05-09 09:00:00,50.0,41.0,29.44,North,-999,-999.0,-999.0,71,-99.99,,,-99.99,,2013-05-09 08:00:00,
2013-05-09 09:41:00,50.0,41.0,29.44,North,-999,-999.0,-999.0,71,-99.99,,,-99.99,,2013-05-09 08:41:00,
2013-05-09 09:51:00,50.0,41.0,29.44,North,-999,-999.0,-999.0,71,-99.99,,,-99.99,,2013-05-09 08:51:00,
2013-05-09 10:00:00,49.0,41.0,29.41,North,-999,-999.0,-999.0,72,-99.99,,,-99.99,,2013-05-09 09:00:00,
2013-05-09 10:42:00,49.0,41.0,29.41,North,-999,-999.0,-999.0,72,-99.99,,,-99.99,,2013-05-09 09:42:00,
2013-05-09 10:52:00,49.0,41.0,29.41,North,-999,-999.0,-999.0,72,-99.99,,,-99.99,,2013-05-09 09:52:00,
2013-05-09 11:00:00,47.0,41.0,29.40,North,-999,-999.0,-999.0,78,-99.99,,,-99.99,,2013-05-09 10:00:00,
2013-05-09 11:41:00,47.0,41.0,29.40,North,-999,-999.0,-999.0,78,-99.99,,,-99.99,,2013-05-09 10:41:00,
2013-05-09 11:52:00,47.0,41.0,29.40,North,-999,-999.0,-999.0,78,-99.99,,,-99.99,,2013-05-09 10:52:00,
2013-05-09 12:00:00,47.0,42.0,29.39,North,-999,-999.0,-999.0,80,-99.99,,,-99.99,,2013-05-09 11:00:00,
2013-05-09 12:32:00,47.0,42.0,29.39,North,-999,-999.0,-999.0,80,-99.99,,,-99.99,,2013-05-09 11:32:00,
2013-05-09 12:41:00,47.0,42.0,29.39,North,-999,-999.0,-999.0,80,-99.99,,,-99.99,,2013-05-09 11:41:00,
2013-05-09 12:51:00,47.0,42.0,29.39,North,-999,-999.0,-999.0,80,-99.99,,,-99.99,,2013-05-09 11:51:00,
2013-05-09 13:00:00,49.0,42.0,29.39,North,-999,-999.0,-999.0,78,-99.99,,,-99.99,,2013-05-09 12:00:00,
2013-05-09 13:42:00,49.0,42.0,29.39,North,-999,-999.0,-999.0,78,-99.99,,,-99.99,,2013-05-09 12:42:00,
2013-05-09 13:51:00,49.0,42.0,29.39,North,-999,-999.0,-999.0,78,-99.99,,,-99.99,,2013-05-09 12:51:00,
2013-05-09 14:00:00,50.0,43.0,29.41,North,-999,-999.0,-999.0,75,-99.99,,,-99.99,,2013-05-09 13:00:00,
2013-05-09 14:42:00,50.0,43.0,29.41,North,-999,-999.0,-999.0,75,-99.99,,,-99.99,,2013-05-09 13:42:00,
2013-05-09 14:52:00,50.0,43.0,29.41,North,-999,-999.0,-999.0,75,-99.99,,,-99.99,,2013-05-09 13:52:00,
2013-05-09 15:00:00,51.0,41.0,29.43,North,-999,-999.0,-999.0,68,-99.99,,,-99.99,,2013-05-09 14:00:00,
2013-05-09 15:41:00,51.0,41.0,29.43,North,-999,-999.0,-999.0,68,-99.99,,,-99.99,,2013-05-09 14:41:00,
2013-05-09 15:52:00,51.0,41.0,29.43,North,-999,-999.0,-999.0,68,-99.99,,,-99.99,,2013-05-09 14:52:00,
2013-05-09 16:00:00,49.0,43.0,29.41,North,-999,-999.0,-999.0,81,-99.99,,,-99.99,,2013-05-09 15:00:00,
2013-05-09 16:42:00,49.0,43.0,29.41,North,-999,-999.0,-999.0,81,-99.99,,,-99.99,,2013-05-09 15:42:00,
2013-05-09 16:52:00,49.0,43.0,29.41,North,-999,-999.0,-999.0,81,-99.99,,,-99.99,,2013-05-09 15:52:00,
2013-05-09 17:00:00,49.0,43.0,29.39,North,-999,-999.0,-999.0,79,-99.99,,,-99.99,,2013-05-09 16:00:00,
2013-05-09 17:41:00,49.0,43.0,29.39,North,-999,-999.0,-999.0,79,-99.99,,,-99.99,,2013-05-09 16:41:00,
2013-05-09 17:52:00,49.0,43.0,29.39,North,-999,-999.0,-999.0,79,-99.99,,,-99.99,,2013-05-09 16:52:00,
2013-05-09 18:00:00,50.0,41.0,29.39,North,-999,-999.0,-999.0,71,-99.99,,,-99.99,,2013-05-09 17:00:00,
2013-05-09 18:41:00,50.0,41.0,29.39,North,-999,-999.0,-999.0,71,-99.99,,,-99.99,,2013-05-09 17:41:00,
2013-05-09 18:54:00,50.0,41.0,29.39,North,-999,-999.0,-999.0,71,-99.99,,,-99.99,,2013-05-09 17:54:00,
2013-05-09 19:00:00,50.0,42.0,29.39,North,-999,-999.0,-999.0,73,-99.99,,,-99.99,,2013-05-09 18:00:00,
2013-05-09 19:31:00,50.0,42.0,29.39,North,-999,-999.0,-999.0,73,-99.99,,,-99.99,,2013-05-09 18:31:00,
2013-05-09 19:41:00,50.0,42.0,29.39,North,-999,-999.0,-999.0,73,-99.99,,,-99.99,,2013-05-09 18:41:00,
2013-05-09 19:52:00,50.0,42.0,29.39,North,-999,-999.0,-999.0,73,-99.99,,,-99.99,,2013-05-09 18:52:00,
2013-05-09 20:00:00,48.0,43.0,29.39,North,-999,-999.0,-999.0,82,-99.99,,,-99.99,,2013-05-09 19:00:00,
2013-05-09 20:41:00,48.0,43.0,29.39,North,-999,-999.0,-999.0,82,-99.99,,,-99.99,,2013-05-09 19:41:00,
2013-05-09 20:52:00,48.0,43.0,29.39,North,-999,-999.0,-999.0,82,-99.99,,,-99.99,,2013-05-09 19:52:00,
2013-05-09 21:00:00,49.0,42.0,29.42,North,-999,-999.0,-999.0,76,-99.99,,,-99.99,,2013-05-09 20:00:00,
2013-05-09 21:42:00,49.0,42.0,29.42,North,-999,-999.0,-999.0,76,-99.99,,,-99.99,,2013-05-09 20:42:00,
2013-05-09 21:52:00,49.0,42.0,29.42,North,-999,-999.0,-999.0,76,-99.99,,,-99.99,,2013-05-09 20:52:00,
2013-05-09 22:00:00,50.0,40.0,29.42,North,-999,-999.0,-999.0,69,-99.99,,,-99.99,,2013-05-09 21:00:00,
2013-05-09 22:42:00,50.0,40.0,29.42,North,-999,-999.0,-999.0,69,-99.99,,,-99.99,,2013-05-09 21:42:00,
2013-05-09 22:52:00,50.0,40.0,29.42,North,-999,-999.0,-999.0,69,-99.99,,,-99.99,,2013-05-09 21:52:00,
2013-05-09 23:00:00,48.0,40.0,29.45,North,-999,-999.0,-999.0,73,-99.99,,,-99.99,,2013-05-09 22:00:00,
2013-05-09 23:42:00,48.0,40.0,29.45,North,-999,-999.0,-999.0,73,-99.99,,,-99.99,,2013-05-09 22:42:00,
2013-05-09 23:52:00,48.0,40.0,29.45,North,-999,-999.0,-999.0,73,-99.99,,,-99.99,,2013-05-09 22:52:00,